createdAt,value
2022-09-20T00:01:29.907Z,99.90
2022-09-20T00:03:57.805Z,99.90
2022-09-20T00:06:29.143Z,99.90
2022-09-20T00:08:56.697Z,99.90
2022-09-20T00:11:28.630Z,99.90
2022-09-20T00:13:56.577Z,99.90
2022-09-20T00:16:25.491Z,99.90
2022-09-20T00:18:53.174Z,99.90
2022-09-20T00:21:22.050Z,99.90
2022-09-20T00:23:49.408Z,99.90
2022-09-20T00:26:17.515Z,99.90
2022-09-20T00:28:44.729Z,99.90
2022-09-20T00:31:11.898Z,99.90
2022-09-20T00:33:57.526Z,99.90
2022-09-20T00:36:24.556Z,99.90
2022-09-20T00:38:58.167Z,99.90
2022-09-20T00:41:25.102Z,99.90
2022-09-20T00:43:52.154Z,99.90
2022-09-20T00:46:33.486Z,99.90
2022-09-20T00:49:11.247Z,99.90
2022-09-20T00:51:38.957Z,99.90
2022-09-20T00:54:05.878Z,99.90
2022-09-20T00:56:34.392Z,99.90
2022-09-20T00:59:31.081Z,99.90
2022-09-20T01:02:08.167Z,99.90
2022-09-20T01:04:35.519Z,99.90
2022-09-20T01:07:02.932Z,99.90
2022-09-20T01:09:29.851Z,99.90
2022-09-20T01:11:56.946Z,99.90
2022-09-20T01:14:24.566Z,99.90
2022-09-20T01:16:53.523Z,99.90
2022-09-20T01:19:29.312Z,99.90
2022-09-20T01:21:56.079Z,99.90
2022-09-20T01:24:47.302Z,99.90
2022-09-20T01:27:38.368Z,99.90
2022-09-20T01:30:10.156Z,99.90
2022-09-20T01:32:56.892Z,99.90
2022-09-20T01:35:24.362Z,99.90
2022-09-20T01:38:29.867Z,99.90
2022-09-20T01:41:28.093Z,99.90
2022-09-20T01:44:18.781Z,99.90
2022-09-20T01:46:45.565Z,99.90
2022-09-20T01:49:30.884Z,99.90
2022-09-20T01:52:34.729Z,99.90
2022-09-20T01:55:19.617Z,99.90
2022-09-20T01:58:23.497Z,99.90
2022-09-20T02:00:59.281Z,99.90
2022-09-20T02:03:48.653Z,99.90
2022-09-20T02:06:34.283Z,99.90
2022-09-20T02:09:38.584Z,99.90
2022-09-20T02:12:30.513Z,99.90
2022-09-20T02:15:10.080Z,99.90
2022-09-20T02:17:49.580Z,99.90
2022-09-20T02:20:38.162Z,99.90
2022-09-20T02:23:16.998Z,99.90
2022-09-20T02:26:16.905Z,99.90
2022-09-20T02:29:21.930Z,99.90
2022-09-20T02:31:48.736Z,99.90
2022-09-20T02:34:33.421Z,99.90
2022-09-20T02:37:29.250Z,99.90
2022-09-20T02:40:16.477Z,99.90
2022-09-20T02:42:50.032Z,99.90
2022-09-20T02:45:58.404Z,99.90
2022-09-20T02:48:30.221Z,99.90
2022-09-20T02:51:06.142Z,99.90
2022-09-20T02:53:58.421Z,99.90
2022-09-20T02:56:36.847Z,99.90
2022-09-20T02:59:05.743Z,99.90
2022-09-20T03:02:08.524Z,99.90
2022-09-20T03:04:46.118Z,99.90
2022-09-20T03:07:46.286Z,99.90
2022-09-20T03:10:26.802Z,99.90
2022-09-20T03:13:02.826Z,99.90
2022-09-20T03:15:41.755Z,99.90
2022-09-20T03:18:11.439Z,99.90
2022-09-20T03:20:55.436Z,99.90
2022-09-20T03:23:31.526Z,99.90
2022-09-20T03:26:00.651Z,99.90
2022-09-20T03:28:30.912Z,99.90
2022-09-20T03:31:12.569Z,99.90
2022-09-20T03:34:12.072Z,99.90
2022-09-20T03:37:13.833Z,99.90
2022-09-20T03:40:11.427Z,99.90
2022-09-20T03:42:49.169Z,99.90
2022-09-20T03:45:34.112Z,99.90
2022-09-20T03:48:29.663Z,99.90
2022-09-20T03:51:34.528Z,99.90
2022-09-20T03:54:10.564Z,99.90
2022-09-20T03:57:06.913Z,99.90
2022-09-20T04:00:07.585Z,99.90
2022-09-20T04:02:50.659Z,99.90
2022-09-20T04:05:42.855Z,99.90
2022-09-20T04:08:27.702Z,99.90
2022-09-20T04:11:12.909Z,99.90
2022-09-20T04:13:42.515Z,99.90
2022-09-20T04:16:48.126Z,99.90
2022-09-20T04:19:33.000Z,99.90
2022-09-20T04:22:00.927Z,99.90
2022-09-20T04:24:36.736Z,99.90
2022-09-20T04:27:22.852Z,99.90
2022-09-20T04:30:02.318Z,99.90
2022-09-20T04:32:44.811Z,99.90
2022-09-20T04:35:54.447Z,99.90
2022-09-20T04:38:21.840Z,99.90
2022-09-20T04:41:16.618Z,99.90
2022-09-20T04:44:27.952Z,99.90
2022-09-20T04:47:19.106Z,99.90
2022-09-20T04:49:48.796Z,99.90
2022-09-20T04:52:53.618Z,99.90
2022-09-20T04:55:44.797Z,99.90
2022-09-20T04:58:19.233Z,99.90
2022-09-20T05:01:16.949Z,99.90
2022-09-20T05:04:04.866Z,99.90
2022-09-20T05:06:46.604Z,99.90
2022-09-20T05:09:22.736Z,99.90
2022-09-20T05:12:09.616Z,99.90
2022-09-20T05:15:01.917Z,99.90
2022-09-20T05:17:34.568Z,99.90
2022-09-20T05:20:16.486Z,99.90
2022-09-20T05:22:52.205Z,99.90
2022-09-20T05:25:52.036Z,99.90
2022-09-20T05:28:46.819Z,99.90
2022-09-20T05:31:44.761Z,99.90
2022-09-20T05:34:20.708Z,99.90
2022-09-20T05:36:54.676Z,99.90
2022-09-20T05:39:40.739Z,99.90
2022-09-20T05:42:26.752Z,99.90
2022-09-20T05:45:04.314Z,99.90
2022-09-20T05:47:56.942Z,99.90
2022-09-20T05:50:23.973Z,99.90
2022-09-20T05:52:59.664Z,99.90
2022-09-20T05:55:46.981Z,99.90
2022-09-20T05:58:58.574Z,99.90
2022-09-20T06:01:44.665Z,99.90
2022-09-20T06:04:24.555Z,99.90
2022-09-20T06:07:06.402Z,99.90
2022-09-20T06:10:04.072Z,99.90
2022-09-20T06:12:46.395Z,99.90
2022-09-20T06:15:19.680Z,99.90
2022-09-20T06:18:11.504Z,99.90
2022-09-20T06:20:54.740Z,99.90
2022-09-20T06:23:21.537Z,99.90
2022-09-20T06:25:57.306Z,99.90
2022-09-20T06:28:49.241Z,99.90
2022-09-20T06:31:17.931Z,99.90
2022-09-20T06:33:50.017Z,99.90
2022-09-20T06:37:02.562Z,99.90
2022-09-20T06:40:02.584Z,99.90
2022-09-20T06:42:29.689Z,99.90
2022-09-20T06:44:56.844Z,99.90
2022-09-20T06:47:23.705Z,99.90
2022-09-20T06:49:50.515Z,99.90
2022-09-20T06:52:18.284Z,99.90
2022-09-20T06:54:46.469Z,99.90
2022-09-20T06:57:15.897Z,99.90
2022-09-20T06:59:42.860Z,99.90
2022-09-20T07:02:10.991Z,99.90
2022-09-20T07:04:38.018Z,99.90
2022-09-20T07:07:09.247Z,99.90
2022-09-20T07:09:36.511Z,99.90
2022-09-20T07:12:03.563Z,99.90
2022-09-20T07:14:31.064Z,99.90
2022-09-20T07:16:57.905Z,99.90
2022-09-20T07:19:24.744Z,99.90
2022-09-20T07:21:51.656Z,99.90
2022-09-20T07:24:18.551Z,99.90
2022-09-20T07:26:56.239Z,99.90
2022-09-20T07:29:23.184Z,99.90
2022-09-20T07:31:50.806Z,99.90
2022-09-20T07:34:20.215Z,99.90
2022-09-20T07:36:50.472Z,99.90
2022-09-20T07:39:17.664Z,99.90
2022-09-20T07:41:48.578Z,99.90
2022-09-20T07:44:24.314Z,99.90
2022-09-20T07:46:52.016Z,99.90
2022-09-20T07:49:19.048Z,99.90
2022-09-20T07:51:45.894Z,99.90
2022-09-20T07:54:12.719Z,99.90
2022-09-20T07:56:39.881Z,99.90
2022-09-20T07:59:06.667Z,99.90
2022-09-20T08:01:33.585Z,99.90
2022-09-20T08:04:00.678Z,99.90
2022-09-20T08:06:27.563Z,99.90
2022-09-20T08:08:54.443Z,99.90
2022-09-20T08:11:27.743Z,99.90
2022-09-20T08:14:10.537Z,99.90
2022-09-20T08:16:38.468Z,99.90
2022-09-20T08:19:05.695Z,99.90
2022-09-20T08:21:33.221Z,99.90
2022-09-20T08:24:00.206Z,99.90
2022-09-20T08:26:28.484Z,99.90
2022-09-20T08:28:56.926Z,99.90
2022-09-20T08:31:25.331Z,99.90
2022-09-20T08:33:52.444Z,99.90
2022-09-20T08:36:20.822Z,99.70
2022-09-20T08:41:48.650Z,99.80
2022-09-20T08:44:25.655Z,99.00
2022-09-20T08:47:02.923Z,99.60
2022-09-20T08:49:30.025Z,99.10
2022-09-20T08:51:58.197Z,99.00
2022-09-20T08:54:32.222Z,97.40
2022-09-20T08:57:05.409Z,98.10
2022-09-20T08:59:32.294Z,97.90
2022-09-20T09:01:59.895Z,98.10
2022-09-20T09:04:35.586Z,97.80
2022-09-20T09:07:02.746Z,97.20
2022-09-20T09:09:29.633Z,97.40
2022-09-20T09:11:56.907Z,97.30
2022-09-20T09:14:48.461Z,96.50
2022-09-20T09:17:19.817Z,96.80
2022-09-20T09:20:12.770Z,96.30
2022-09-20T09:22:41.199Z,95.50
2022-09-20T09:25:21.915Z,95.50
2022-09-20T09:28:03.760Z,94.60
2022-09-20T09:30:37.899Z,94.90
2022-09-20T09:33:25.312Z,94.00
2022-09-20T09:35:55.270Z,91.80
2022-09-20T09:38:24.253Z,92.60
2022-09-20T09:40:55.638Z,93.50
2022-09-20T09:43:28.638Z,92.10
2022-09-20T09:45:56.676Z,92.00
2022-09-20T09:48:25.056Z,91.20
2022-09-20T09:51:07.933Z,91.60
2022-09-20T09:53:35.742Z,91.20
2022-09-20T09:56:26.036Z,92.80
2022-09-20T09:59:37.558Z,91.60
2022-09-20T10:02:31.012Z,90.30
2022-09-20T10:05:10.896Z,90.90
2022-09-20T10:07:48.198Z,90.70
2022-09-20T10:10:32.434Z,91.30
2022-09-20T10:13:16.316Z,91.10
2022-09-20T10:16:04.429Z,91.00
2022-09-20T10:18:37.170Z,90.90
2022-09-20T10:21:08.417Z,91.40
2022-09-20T10:24:19.639Z,90.90
2022-09-20T10:27:04.046Z,88.30
2022-09-20T10:29:30.842Z,88.60
2022-09-20T10:32:15.305Z,90.20
2022-09-20T10:34:52.873Z,89.70
2022-09-20T10:37:38.923Z,90.00
2022-09-20T10:40:46.869Z,89.70
2022-09-20T10:43:20.993Z,87.50
2022-09-20T10:46:30.768Z,89.10
2022-09-20T10:49:20.593Z,84.20
2022-09-20T10:52:15.371Z,83.40
2022-09-20T10:54:55.116Z,85.60
2022-09-20T10:57:35.172Z,85.80
2022-09-20T11:00:28.824Z,88.40
2022-09-20T11:03:13.949Z,83.60
2022-09-20T11:05:58.976Z,83.60
2022-09-20T11:08:32.567Z,81.60
2022-09-20T11:11:08.744Z,83.90
2022-09-20T11:13:41.324Z,84.80
2022-09-20T11:16:27.100Z,84.30
2022-09-20T11:19:00.231Z,83.40
2022-09-20T11:21:38.339Z,86.20
2022-09-20T11:24:19.195Z,83.00
2022-09-20T11:26:57.065Z,84.30
2022-09-20T11:29:32.860Z,82.20
2022-09-20T11:32:13.988Z,82.80
2022-09-20T11:34:57.234Z,81.60
2022-09-20T11:37:27.778Z,83.20
2022-09-20T11:39:55.206Z,83.50
2022-09-20T11:42:27.998Z,83.70
2022-09-20T11:44:54.900Z,84.30
2022-09-20T11:47:42.710Z,83.50
2022-09-20T11:50:29.243Z,83.00
2022-09-20T11:53:11.337Z,82.20
2022-09-20T11:56:05.142Z,81.40
2022-09-20T11:58:33.426Z,82.50
2022-09-20T12:01:00.434Z,82.50
2022-09-20T12:03:33.930Z,83.80
2022-09-20T12:06:05.859Z,81.80
2022-09-20T12:08:35.093Z,83.60
2022-09-20T12:11:07.798Z,82.20
2022-09-20T12:13:36.482Z,83.40
2022-09-20T12:16:13.115Z,83.60
2022-09-20T12:18:55.332Z,81.80
2022-09-20T12:21:22.386Z,79.50
2022-09-20T12:23:58.361Z,81.50
2022-09-20T12:26:28.212Z,79.40
2022-09-20T12:28:56.890Z,81.00
2022-09-20T12:31:29.452Z,80.90
2022-09-20T12:34:11.771Z,81.10
2022-09-20T12:36:43.229Z,77.60
2022-09-20T12:39:15.283Z,79.80
2022-09-20T12:41:56.427Z,78.90
2022-09-20T12:44:40.198Z,76.80
2022-09-20T12:47:11.383Z,78.00
2022-09-20T12:50:06.111Z,78.00
2022-09-20T12:52:57.036Z,77.70
2022-09-20T12:55:29.994Z,78.50
2022-09-20T12:58:08.193Z,78.00
2022-09-20T13:00:48.604Z,78.00
2022-09-20T13:03:15.460Z,76.70
2022-09-20T13:05:44.922Z,78.00
2022-09-20T13:08:30.149Z,78.90
2022-09-20T13:11:07.384Z,77.10
2022-09-20T13:13:36.135Z,77.90
2022-09-20T13:16:05.774Z,78.30
2022-09-20T13:18:34.652Z,79.10
2022-09-20T13:21:06.397Z,79.20
2022-09-20T13:23:38.591Z,78.90
2022-09-20T13:26:05.938Z,78.50
2022-09-20T13:28:37.370Z,79.10
2022-09-20T13:31:21.054Z,78.20
2022-09-20T13:33:48.394Z,76.30
2022-09-20T13:36:15.291Z,78.70
2022-09-20T13:38:43.299Z,78.20
2022-09-20T13:41:11.462Z,78.70
2022-09-20T13:43:41.141Z,78.30
2022-09-20T13:46:12.169Z,78.30
2022-09-20T13:48:39.326Z,77.80
2022-09-20T13:51:18.618Z,77.20
2022-09-20T13:53:47.548Z,77.50
2022-09-20T13:56:25.698Z,78.50
2022-09-20T13:58:52.939Z,76.30
2022-09-20T14:01:24.491Z,78.50
2022-09-20T14:03:51.485Z,78.10
2022-09-20T14:06:18.351Z,78.50
2022-09-20T14:08:49.695Z,78.40
2022-09-20T14:11:37.023Z,77.80
2022-09-20T14:14:04.316Z,78.70
2022-09-20T14:16:35.971Z,77.40
2022-09-20T14:19:03.122Z,75.70
2022-09-20T14:21:32.364Z,76.80
2022-09-20T14:24:04.862Z,76.80
2022-09-20T14:26:36.426Z,78.70
2022-09-20T14:29:34.571Z,78.30
2022-09-20T14:32:16.775Z,76.60
2022-09-20T14:34:49.402Z,77.60
2022-09-20T14:37:18.464Z,76.60
2022-09-20T14:39:54.310Z,77.80
2022-09-20T14:42:31.818Z,76.80
2022-09-20T14:44:58.673Z,77.50
2022-09-20T14:47:36.510Z,77.50
2022-09-20T14:50:04.080Z,78.00
2022-09-20T14:52:38.377Z,78.60
2022-09-20T14:55:14.359Z,77.80
2022-09-20T14:57:42.226Z,77.50
2022-09-20T15:00:15.274Z,78.30
2022-09-20T15:02:45.520Z,77.40
2022-09-20T15:05:26.055Z,78.00
2022-09-20T15:08:12.912Z,77.50
2022-09-20T15:10:39.808Z,77.20
2022-09-20T15:13:08.977Z,78.60
2022-09-20T15:15:35.916Z,78.40
2022-09-20T15:18:03.229Z,78.00
2022-09-20T15:20:30.206Z,77.90
2022-09-20T15:22:57.994Z,79.00
2022-09-20T15:25:24.832Z,78.70
2022-09-20T15:27:51.801Z,78.80
2022-09-20T15:30:19.746Z,77.60
2022-09-20T15:32:46.808Z,78.40
2022-09-20T15:35:14.305Z,78.10
2022-09-20T15:37:41.345Z,78.00
2022-09-20T15:40:09.050Z,78.00
2022-09-20T15:42:38.052Z,78.50
2022-09-20T15:45:09.073Z,79.00
2022-09-20T15:47:39.448Z,78.20
2022-09-20T15:50:08.416Z,78.40
2022-09-20T15:52:36.724Z,78.70
2022-09-20T15:55:04.338Z,78.20
2022-09-20T15:57:31.784Z,78.20
2022-09-20T16:00:01.416Z,78.00
2022-09-20T16:02:35.257Z,78.60
2022-09-20T16:05:02.048Z,79.00
2022-09-20T16:07:28.913Z,78.60
2022-09-20T16:09:55.983Z,78.10
2022-09-20T16:12:23.817Z,78.20
2022-09-20T16:14:50.764Z,78.10
2022-09-20T16:17:17.856Z,78.30
2022-09-20T16:19:48.650Z,78.50
2022-09-20T16:22:16.037Z,78.70
2022-09-20T16:24:42.935Z,77.90
2022-09-20T16:27:09.957Z,78.70
2022-09-20T16:29:37.557Z,79.20
2022-09-20T16:32:05.397Z,79.60
2022-09-20T16:34:33.800Z,79.90
2022-09-20T16:37:05.746Z,80.10
2022-09-20T16:39:32.592Z,80.30
2022-09-20T16:42:04.674Z,80.30
2022-09-20T16:44:38.713Z,80.70
2022-09-20T16:47:09.868Z,81.00
2022-09-20T16:49:36.928Z,81.10
2022-09-20T16:52:07.740Z,81.20
2022-09-20T16:54:34.692Z,81.40
2022-09-20T16:57:01.624Z,81.60
2022-09-20T16:59:28.629Z,81.80
2022-09-20T17:01:55.524Z,82.40
2022-09-20T17:04:22.522Z,81.90
2022-09-20T17:06:49.707Z,82.20
2022-09-20T17:09:16.642Z,82.00
2022-09-20T17:11:47.827Z,82.90
2022-09-20T17:14:16.426Z,82.50
2022-09-20T17:16:43.609Z,82.70
2022-09-20T17:19:11.909Z,82.90
2022-09-20T17:21:40.282Z,82.80
2022-09-20T17:24:07.201Z,83.00
2022-09-20T17:26:38.781Z,82.70
2022-09-20T17:29:06.940Z,82.80
2022-09-20T17:31:35.514Z,83.10
2022-09-20T17:34:04.107Z,82.90
2022-09-20T17:36:32.733Z,83.00
2022-09-20T17:39:04.271Z,82.90
2022-09-20T17:41:32.531Z,82.70
2022-09-20T17:44:00.127Z,82.80
2022-09-20T17:46:31.504Z,82.80
2022-09-20T17:49:06.852Z,82.90
2022-09-20T17:51:36.477Z,83.10
2022-09-20T17:54:03.527Z,82.80
2022-09-20T17:56:31.200Z,83.00
2022-09-20T17:58:58.806Z,83.40
2022-09-20T18:01:27.290Z,83.60
2022-09-20T18:03:56.184Z,83.70
2022-09-20T18:06:27.472Z,84.00
2022-09-20T18:09:02.643Z,84.00
2022-09-20T18:11:33.958Z,83.70
2022-09-20T18:14:01.499Z,84.20
2022-09-20T18:16:28.836Z,84.10
2022-09-20T18:18:55.683Z,84.20
2022-09-20T18:21:23.945Z,83.90
2022-09-20T18:23:51.770Z,84.30
2022-09-20T18:26:23.001Z,84.00
2022-09-20T18:28:56.844Z,84.60
2022-09-20T18:31:25.378Z,85.30
2022-09-20T18:33:55.984Z,85.00
2022-09-20T18:36:28.213Z,85.10
2022-09-20T18:39:01.393Z,86.00
2022-09-20T18:41:31.337Z,86.90
2022-09-20T18:43:58.353Z,86.00
2022-09-20T18:46:30.856Z,86.60
2022-09-20T18:49:02.496Z,86.50
2022-09-20T18:51:29.545Z,87.10
2022-09-20T18:53:57.033Z,87.50
2022-09-20T18:56:29.498Z,87.90
2022-09-20T18:58:59.041Z,88.20
2022-09-20T19:01:54.014Z,88.80
2022-09-20T19:04:46.542Z,90.20
2022-09-20T19:07:42.385Z,89.30
2022-09-20T19:10:21.820Z,90.20
2022-09-20T19:12:53.060Z,90.00
2022-09-20T19:15:34.987Z,90.00
2022-09-20T19:18:10.849Z,90.30
2022-09-20T19:20:46.641Z,90.50
2022-09-20T19:23:56.519Z,90.40
2022-09-20T19:26:30.502Z,91.00
2022-09-20T19:29:00.048Z,90.70
2022-09-20T19:31:29.420Z,90.70
2022-09-20T19:33:59.293Z,90.90
2022-09-20T19:36:40.049Z,91.00
2022-09-20T19:39:14.694Z,91.20
2022-09-20T19:41:47.445Z,91.30
2022-09-20T19:44:14.686Z,91.60
2022-09-20T19:47:06.211Z,91.60
2022-09-20T19:49:46.361Z,92.10
2022-09-20T19:52:16.122Z,92.30
2022-09-20T19:54:46.783Z,92.20
2022-09-20T19:57:23.554Z,92.30
2022-09-20T19:59:51.134Z,92.80
2022-09-20T20:02:18.451Z,92.90
2022-09-20T20:04:45.651Z,92.90
2022-09-20T20:07:32.540Z,93.00
2022-09-20T20:10:18.409Z,93.50
2022-09-20T20:13:03.783Z,93.20
2022-09-20T20:15:30.975Z,93.10
2022-09-20T20:18:30.445Z,93.40
2022-09-20T20:20:57.405Z,94.20
2022-09-20T20:23:48.390Z,93.40
2022-09-20T20:26:23.381Z,93.90
2022-09-20T20:28:51.688Z,94.00
2022-09-20T20:31:21.359Z,93.70
2022-09-20T20:33:48.505Z,93.80
2022-09-20T20:36:16.329Z,93.80
2022-09-20T20:38:49.409Z,94.20
2022-09-20T20:41:18.699Z,94.00
2022-09-20T20:43:47.105Z,94.10
2022-09-20T20:46:20.477Z,94.10
2022-09-20T20:48:47.820Z,94.20
2022-09-20T20:51:16.859Z,93.90
2022-09-20T20:53:47.433Z,94.00
2022-09-20T20:56:19.053Z,94.10
2022-09-20T20:58:46.299Z,94.10
2022-09-20T21:01:19.901Z,94.20
2022-09-20T21:03:48.611Z,94.60
2022-09-20T21:06:16.426Z,94.60
2022-09-20T21:08:49.088Z,94.70
2022-09-20T21:11:23.383Z,94.80
2022-09-20T21:13:51.273Z,95.00
2022-09-20T21:16:19.729Z,94.80
2022-09-20T21:18:47.784Z,95.10
2022-09-20T21:21:14.681Z,95.10
2022-09-20T21:23:41.573Z,95.10
2022-09-20T21:26:09.539Z,95.20
2022-09-20T21:28:37.518Z,95.20
2022-09-20T21:31:08.243Z,95.20
2022-09-20T21:33:37.633Z,95.40
2022-09-20T21:36:05.492Z,95.30
2022-09-20T21:38:34.146Z,95.40
2022-09-20T21:41:13.263Z,95.50
2022-09-20T21:43:41.942Z,95.80
2022-09-20T21:46:17.786Z,95.70
2022-09-20T21:48:45.575Z,96.10
2022-09-20T21:51:14.685Z,95.90
2022-09-20T21:53:41.582Z,96.00
2022-09-20T21:56:10.354Z,96.10
2022-09-20T21:58:39.923Z,96.30
2022-09-20T22:01:12.043Z,96.20
2022-09-20T22:03:40.459Z,96.50
2022-09-20T22:06:21.031Z,96.50
2022-09-20T22:08:58.953Z,96.60
2022-09-20T22:11:27.429Z,96.70
2022-09-20T22:13:55.002Z,96.80
2022-09-20T22:16:26.511Z,97.00
2022-09-20T22:18:53.646Z,97.20
2022-09-20T22:21:24.710Z,97.10
2022-09-20T22:23:58.919Z,97.20
2022-09-20T22:26:27.202Z,97.50
2022-09-20T22:28:54.122Z,97.00
2022-09-20T22:31:23.013Z,97.10
2022-09-20T22:33:51.720Z,97.20
2022-09-20T22:36:21.007Z,97.10
2022-09-20T22:38:47.957Z,97.00
2022-09-20T22:41:15.526Z,97.20
2022-09-20T22:43:42.417Z,97.30
2022-09-20T22:46:10.090Z,97.50
2022-09-20T22:48:36.986Z,97.30
2022-09-20T22:51:09.202Z,97.50
2022-09-20T22:53:35.948Z,97.70
2022-09-20T22:56:06.811Z,98.30
2022-09-20T22:58:35.373Z,98.00
2022-09-20T23:01:09.949Z,97.50
2022-09-20T23:03:40.841Z,97.60
2022-09-20T23:06:20.839Z,97.50
2022-09-20T23:08:51.905Z,97.60
2022-09-20T23:11:19.405Z,97.70
2022-09-20T23:13:46.524Z,97.70
2022-09-20T23:16:21.244Z,97.60
2022-09-20T23:18:49.075Z,97.70
2022-09-20T23:21:16.102Z,97.70
2022-09-20T23:23:43.517Z,97.60
2022-09-20T23:26:11.409Z,97.60
2022-09-20T23:28:39.817Z,97.50
2022-09-20T23:31:11.500Z,97.50
2022-09-20T23:33:38.438Z,97.60
2022-09-20T23:36:08.935Z,97.70
2022-09-20T23:38:36.503Z,97.80
2022-09-20T23:41:04.397Z,97.70
2022-09-20T23:43:31.294Z,97.60
2022-09-20T23:45:58.223Z,97.70
2022-09-20T23:48:25.065Z,97.70
2022-09-20T23:50:52.296Z,97.80
2022-09-20T23:53:19.329Z,97.80
2022-09-20T23:55:46.141Z,97.80
2022-09-20T23:58:13.079Z,97.70
